Time;durP1;ratioP1;P1;durP2;ratioP2;P2;SDS_P1;SDS_P2;PMS_P1;PMS_P2;Temp;Humidity;BMP_temperature;BMP_pressure;BME280_temperature;BME280_humidity;BME280_pressure;Samples;Min_cycle;Max_cycle;Signal;HPM_P1;HPM_P2
2023/04/23 00:00:48;;;;;;;13.75;7.80;;;;;;;17.86;39.28;100584.19;4973733;28;20045;-43
2023/04/23 00:03:14;;;;;;;16.98;8.10;;;;;;;17.86;39.34;100586.00;4974464;28;20037;-43
2023/04/23 00:05:41;;;;;;;15.15;7.90;;;;;;;17.78;39.53;100581.38;4963778;28;20069;-44
2023/04/23 00:08:07;;;;;;;14.73;7.50;;;;;;;17.78;39.68;100578.72;4966599;28;20042;-43
2023/04/23 00:10:32;;;;;;;10.63;6.95;;;;;;;17.78;39.72;100576.03;4969790;28;20065;-44
2023/04/23 00:12:58;;;;;;;15.05;7.35;;;;;;;17.80;39.75;100571.44;4978095;28;20122;-43
2023/04/23 00:15:24;;;;;;;11.00;7.43;;;;;;;17.82;39.69;100566.81;4982650;28;20038;-43
2023/04/23 00:17:50;;;;;;;12.05;8.43;;;;;;;17.83;39.68;100569.34;4974322;28;20495;-44
2023/04/23 00:20:16;;;;;;;10.88;6.47;;;;;;;17.83;39.69;100564.03;4974014;28;20053;-42
2023/04/23 00:22:42;;;;;;;12.95;7.97;;;;;;;17.82;39.85;100554.38;4974558;28;20030;-45
2023/04/23 00:25:08;;;;;;;14.77;8.05;;;;;;;17.80;39.72;100550.13;4975192;28;20065;-42
2023/04/23 00:27:34;;;;;;;16.27;7.72;;;;;;;17.82;39.76;100554.38;4975522;28;20749;-42
2023/04/23 00:30:00;;;;;;;15.75;8.13;;;;;;;17.81;39.72;100549.16;4975397;28;20031;-43
2023/04/23 00:32:25;;;;;;;11.10;7.28;;;;;;;17.77;39.97;100542.47;4975432;28;20044;-42
2023/04/23 00:34:51;;;;;;;14.75;7.15;;;;;;;17.74;39.83;100540.06;4980088;28;20509;-43
2023/04/23 00:37:17;;;;;;;14.52;7.93;;;;;;;17.76;39.84;100540.78;4977724;28;20037;-43
2023/04/23 00:39:42;;;;;;;12.90;7.32;;;;;;;17.77;39.94;100534.47;4975052;28;20087;-42
2023/04/23 00:42:12;;;;;;;11.82;6.97;;;;;;;17.71;40.07;100535.03;4976149;28;20046;-43
2023/04/23 00:44:39;;;;;;;9.57;6.95;;;;;;;17.72;40.03;100524.22;4971390;28;20031;-43
2023/04/23 00:47:06;;;;;;;15.32;7.32;;;;;;;17.74;39.97;100519.63;4969729;28;20447;-43
2023/04/23 00:49:32;;;;;;;12.77;6.93;;;;;;;17.67;39.96;100519.34;4975834;28;20361;-43
2023/04/23 00:51:59;;;;;;;11.82;7.20;;;;;;;17.64;39.95;100521.44;4971444;28;20041;-43
2023/04/23 00:54:25;;;;;;;13.50;7.72;;;;;;;17.63;40.02;100515.28;4978172;28;20031;-44
2023/04/23 00:56:51;;;;;;;15.75;7.35;;;;;;;17.68;40.01;100514.88;4983169;28;20026;-42
2023/04/23 00:59:17;;;;;;;12.25;7.05;;;;;;;17.69;39.94;100519.22;4974208;28;20042;-43
2023/04/23 01:01:44;;;;;;;12.88;6.90;;;;;;;17.66;40.01;100512.34;4977840;28;20042;-43
2023/04/23 01:04:13;;;;;;;13.75;7.03;;;;;;;17.68;39.95;100509.56;4980843;28;20195;-42
2023/04/23 01:06:40;;;;;;;11.45;6.53;;;;;;;17.71;39.98;100505.75;4978428;28;20077;-42
2023/04/23 01:09:08;;;;;;;13.55;6.95;;;;;;;17.76;40.17;100498.22;4974915;28;20070;-43
2023/04/23 01:11:38;;;;;;;12.35;7.18;;;;;;;17.81;39.79;100496.78;4990041;28;20042;-42
2023/04/23 01:14:04;;;;;;;12.00;7.18;;;;;;;17.78;39.75;100499.72;4989172;28;20042;-43
2023/04/23 01:16:29;;;;;;;10.05;6.70;;;;;;;17.76;39.89;100492.88;4982306;28;20038;-43
2023/04/23 01:18:57;;;;;;;14.52;6.57;;;;;;;17.68;40.08;100490.94;4970963;28;20038;-44
2023/04/23 01:21:23;;;;;;;12.40;6.85;;;;;;;17.68;40.21;100486.44;4971879;28;20034;-42
2023/04/23 01:23:49;;;;;;;11.90;7.38;;;;;;;17.68;40.17;100491.75;4977077;28;20037;-43
2023/04/23 01:26:14;;;;;;;16.98;7.50;;;;;;;17.74;40.11;100484.19;4973966;22;20047;-42
2023/04/23 01:28:42;;;;;;;12.43;7.55;;;;;;;17.75;40.16;100481.38;4965436;28;20037;-42
2023/04/23 01:31:08;;;;;;;13.93;7.75;;;;;;;17.67;40.24;100487.41;4960465;28;20480;-42
2023/04/23 01:33:34;;;;;;;12.30;7.43;;;;;;;17.67;40.26;100492.72;4959222;28;20133;-42
2023/04/23 01:36:01;;;;;;;13.00;7.32;;;;;;;17.63;40.45;100496.66;4954827;28;20552;-42
2023/04/23 01:38:29;;;;;;;13.18;7.13;;;;;;;17.65;40.40;100500.00;4959175;28;20398;-41
2023/04/23 01:40:55;;;;;;;11.70;8.07;;;;;;;17.59;40.58;100495.28;4958169;28;20604;-42
2023/04/23 01:43:21;;;;;;;11.30;7.25;;;;;;;17.57;40.65;100493.72;4960403;28;20023;-41
2023/04/23 01:45:47;;;;;;;11.52;7.75;;;;;;;17.55;40.69;100487.69;4956789;28;20037;-41
2023/04/23 01:48:13;;;;;;;11.90;7.47;;;;;;;17.49;40.77;100489.94;4950596;28;20047;-42
2023/04/23 01:50:39;;;;;;;11.93;7.30;;;;;;;17.48;40.86;100492.72;4955582;28;20448;-41
2023/04/23 01:53:04;;;;;;;15.02;7.97;;;;;;;17.44;40.96;100492.19;4955427;28;20490;-42
2023/04/23 01:55:30;;;;;;;17.27;7.43;;;;;;;17.46;41.03;100486.72;4962456;28;20049;-42
2023/04/23 01:57:56;;;;;;;14.23;7.47;;;;;;;17.44;41.10;100486.03;4951949;28;20169;-42
2023/04/23 02:00:22;;;;;;;14.20;7.63;;;;;;;17.46;41.14;100478.75;4951971;28;20052;-39
2023/04/23 02:02:47;;;;;;;13.95;8.35;;;;;;;17.46;41.27;100489.41;4956945;28;20035;-39
2023/04/23 02:05:17;;;;;;;14.52;8.13;;;;;;;17.50;41.22;100488.97;4954706;28;20035;-38
2023/04/23 02:07:44;;;;;;;12.40;7.10;;;;;;;17.48;41.24;100476.78;4953482;28;20059;-38
2023/04/23 02:10:10;;;;;;;11.27;6.85;;;;;;;17.42;41.53;100480.84;4951237;28;20042;-39
2023/04/23 02:12:37;;;;;;;13.60;7.75;;;;;;;17.42;41.59;100478.16;4952619;28;20039;-40
2023/04/23 02:15:03;;;;;;;11.63;7.40;;;;;;;17.36;41.70;100482.22;4952047;28;20047;-40
2023/04/23 02:17:28;;;;;;;14.77;7.88;;;;;;;17.35;41.82;100474.41;4955116;28;20042;-39
2023/04/23 02:19:57;;;;;;;14.65;8.25;;;;;;;17.36;41.71;100482.22;4950623;28;20393;-38
2023/04/23 02:22:24;;;;;;;13.32;8.52;;;;;;;17.40;41.58;100473.97;4952667;28;20027;-39
2023/04/23 02:24:52;;;;;;;12.80;7.85;;;;;;;17.46;41.62;100473.44;4954615;28;20142;-38
2023/04/23 02:27:18;;;;;;;15.40;8.15;;;;;;;17.44;41.54;100470.06;4954132;28;20042;-40
2023/04/23 02:29:45;;;;;;;12.73;7.75;;;;;;;17.40;41.67;100473.97;4956542;28;20529;-40
2023/04/23 02:32:10;;;;;;;13.77;7.78;;;;;;;17.41;41.70;100473.00;4949543;28;20031;-39
2023/04/23 02:34:36;;;;;;;15.07;7.85;;;;;;;17.45;41.55;100477.06;4947576;28;20042;-39
2023/04/23 02:37:03;;;;;;;14.25;8.52;;;;;;;17.45;41.46;100474.41;4944136;28;20030;-40
2023/04/23 02:39:30;;;;;;;12.35;7.03;;;;;;;17.45;41.51;100474.41;4958084;28;20034;-39
2023/04/23 02:41:55;;;;;;;12.13;8.45;;;;;;;17.42;41.57;100472.84;4945163;28;20030;-40
2023/04/23 02:44:21;;;;;;;12.35;7.60;;;;;;;17.48;41.39;100468.78;4953083;28;20039;-40
2023/04/23 02:46:46;;;;;;;13.13;7.15;;;;;;;17.45;41.57;100466.44;4953091;28;20127;-40
2023/04/23 02:49:13;;;;;;;16.85;7.82;;;;;;;17.44;41.70;100468.25;4955395;28;20677;-40
2023/04/23 02:51:39;;;;;;;12.35;7.28;;;;;;;17.47;41.64;100464.47;4955928;28;20058;-40
2023/04/23 02:54:04;;;;;;;13.40;8.45;;;;;;;17.43;41.88;100465.72;4953976;28;20031;-41
2023/04/23 02:56:30;;;;;;;11.20;7.25;;;;;;;17.37;42.13;100454.66;4959753;28;20047;-39
2023/04/23 02:58:56;;;;;;;11.95;8.00;;;;;;;17.36;42.23;100462.78;4956462;28;20457;-39
2023/04/23 03:01:21;;;;;;;13.27;7.88;;;;;;;17.39;42.09;100459.88;4960757;28;20023;-39
2023/04/23 03:03:47;;;;;;;13.77;8.23;;;;;;;17.36;42.26;100460.13;4956560;28;20393;-39
2023/04/23 03:06:13;;;;;;;13.20;7.53;;;;;;;17.28;42.65;100458.16;4950941;28;26078;-40
2023/04/23 03:08:38;;;;;;;12.88;8.35;;;;;;;17.26;42.60;100465.44;4960631;28;20039;-39
2023/04/23 03:11:04;;;;;;;11.90;7.68;;;;;;;17.26;42.60;100457.47;4957661;28;20685;-40
2023/04/23 03:13:29;;;;;;;11.93;7.55;;;;;;;17.26;42.68;100467.25;4960666;28;20041;-40
2023/04/23 03:15:55;;;;;;;13.70;7.32;;;;;;;17.24;42.83;100464.75;4954523;28;20042;-39
2023/04/23 03:18:20;;;;;;;16.95;7.93;;;;;;;17.28;42.73;100460.84;4955320;28;20043;-40
2023/04/23 03:20:46;;;;;;;10.68;7.55;;;;;;;17.33;42.65;100458.56;4948157;28;20039;-40
2023/04/23 03:23:12;;;;;;;12.73;7.85;;;;;;;17.31;42.67;100460.56;4952526;28;20556;-40
2023/04/23 03:25:38;;;;;;;13.02;7.50;;;;;;;17.32;42.64;100462.22;4952881;28;20027;-40
2023/04/23 03:28:03;;;;;;;12.38;7.15;;;;;;;17.30;42.78;100461.53;4955209;28;20035;-39
2023/04/23 03:30:29;;;;;;;11.32;7.03;;;;;;;17.36;42.68;100452.16;4954719;28;20515;-39
2023/04/23 03:32:55;;;;;;;12.60;8.60;;;;;;;17.36;42.81;100452.97;4970436;28;20055;-40
2023/04/23 03:35:22;;;;;;;13.57;7.70;;;;;;;17.26;43.20;100446.84;4956958;28;20418;-41
2023/04/23 03:37:47;;;;;;;13.13;8.52;;;;;;;17.28;43.21;100450.19;4953266;28;20075;-41
2023/04/23 03:40:13;;;;;;;15.07;8.15;;;;;;;17.30;43.20;100445.59;4952016;28;20023;-39
2023/04/23 03:42:38;;;;;;;12.90;8.00;;;;;;;17.25;43.51;100446.94;4957978;28;20053;-39
2023/04/23 03:45:05;;;;;;;14.35;7.90;;;;;;;17.22;43.45;100440.09;4949378;28;20077;-40
2023/04/23 03:47:30;;;;;;;14.32;7.70;;;;;;;17.19;43.69;100445.69;4949473;28;20031;-41
2023/04/23 03:49:56;;;;;;;12.93;7.88;;;;;;;17.20;43.87;100442.06;4955987;28;20035;-41
2023/04/23 03:52:21;;;;;;;14.82;7.78;;;;;;;17.20;43.91;100439.41;4952260;28;20076;-41
2023/04/23 03:54:46;;;;;;;15.63;8.20;;;;;;;17.22;43.97;100437.44;4951897;28;20039;-42
2023/04/23 03:57:12;;;;;;;12.00;7.75;;;;;;;17.25;43.91;100434.50;4960216;28;20034;-42
2023/04/23 03:59:38;;;;;;;13.13;8.02;;;;;;;17.28;43.93;100434.25;4954450;28;20851;-42
2023/04/23 04:02:03;;;;;;;13.27;7.97;;;;;;;17.28;44.12;100442.22;4954377;28;20047;-43
2023/04/23 04:04:29;;;;;;;12.63;8.38;;;;;;;17.28;44.15;100444.88;4955554;28;20058;-44
2023/04/23 04:06:56;;;;;;;13.93;8.02;;;;;;;17.29;44.12;100441.25;4949733;28;20038;-42
2023/04/23 04:09:21;;;;;;;13.20;7.88;;;;;;;17.27;44.26;100437.88;4953689;28;20544;-42
2023/04/23 04:11:47;;;;;;;11.73;7.75;;;;;;;17.30;44.28;100437.59;4954681;28;20042;-43
2023/04/23 04:14:13;;;;;;;12.13;8.18;;;;;;;17.32;44.31;100440.94;4951130;28;20466;-42
2023/04/23 04:16:38;;;;;;;13.88;8.48;;;;;;;17.38;44.12;100434.25;4953171;28;20027;-41
2023/04/23 04:19:04;;;;;;;28.20;8.75;;;;;;;17.35;44.37;100445.97;4948048;28;20039;-42
2023/04/23 04:21:31;;;;;;;12.88;8.38;;;;;;;17.29;44.39;100443.03;4951262;28;20026;-43
2023/04/23 04:23:56;;;;;;;15.50;7.70;;;;;;;17.31;44.28;100436.63;4951541;28;20069;-42
2023/04/23 04:26:22;;;;;;;13.77;7.82;;;;;;;17.36;44.29;100437.03;4946538;28;20121;-42
2023/04/23 04:28:47;;;;;;;13.50;9.10;;;;;;;17.38;44.14;100439.56;4962151;28;20030;-42
2023/04/23 04:31:14;;;;;;;13.10;8.52;;;;;;;17.41;44.21;100443.75;4949339;28;20408;-41
2023/04/23 04:33:40;;;;;;;14.23;7.85;;;;;;;17.41;44.18;100443.75;4958187;28;20031;-42
2023/04/23 04:36:08;;;;;;;18.23;9.05;;;;;;;17.45;44.04;100438.00;4950663;28;20076;-41
2023/04/23 04:38:36;;;;;;;13.90;7.82;;;;;;;17.43;44.12;100442.63;4952559;28;20116;-42
2023/04/23 04:41:02;;;;;;;12.55;8.60;;;;;;;17.41;44.19;100438.44;4957105;28;20100;-42
2023/04/23 04:43:28;;;;;;;15.63;8.90;;;;;;;17.41;44.20;100441.09;4951934;28;20449;-42
2023/04/23 04:45:53;;;;;;;16.38;8.32;;;;;;;17.44;44.19;100436.31;4959325;28;20023;-41
2023/04/23 04:48:19;;;;;;;12.80;9.13;;;;;;;17.48;44.14;100440.38;4951515;28;20089;-42
2023/04/23 04:50:45;;;;;;;15.05;8.80;;;;;;;17.40;44.37;100442.06;4949469;28;20039;-41
2023/04/23 04:53:11;;;;;;;14.75;8.07;;;;;;;17.41;44.54;100441.91;4957583;28;20027;-41
2023/04/23 04:55:37;;;;;;;12.65;8.13;;;;;;;17.42;44.53;100448.91;4956426;28;20386;-42
2023/04/23 04:58:02;;;;;;;14.07;7.85;;;;;;;17.39;44.69;100446.56;4954389;28;20042;-42
2023/04/23 05:00:29;;;;;;;14.73;8.40;;;;;;;17.50;44.82;100450.88;4953643;28;20035;-41
2023/04/23 05:02:57;;;;;;;14.05;8.13;;;;;;;17.50;44.99;100441.09;4954494;28;20045;-40
2023/04/23 05:05:24;;;;;;;13.60;9.65;;;;;;;17.48;45.01;100435.06;4960933;28;20026;-42
2023/04/23 05:07:50;;;;;;;16.58;8.43;;;;;;;17.46;45.18;100429.03;4962614;28;20049;-41
2023/04/23 05:10:16;;;;;;;17.92;9.48;;;;;;;17.43;45.46;100420.53;4957661;28;20118;-42
2023/04/23 05:12:42;;;;;;;14.52;8.88;;;;;;;17.50;45.34;100426.94;4958655;28;20019;-41
2023/04/23 05:15:11;;;;;;;13.68;8.90;;;;;;;17.43;45.63;100437.31;4961580;28;20069;-42
2023/04/23 05:17:37;;;;;;;11.70;7.45;;;;;;;17.44;45.58;100431.00;4959132;28;20565;-41
2023/04/23 05:20:03;;;;;;;13.20;9.02;;;;;;;17.49;45.42;100430.56;4954315;28;20050;-42
2023/04/23 05:22:29;;;;;;;14.52;8.43;;;;;;;17.51;45.44;100439.25;4954237;28;20178;-41
2023/04/23 05:24:55;;;;;;;12.25;7.47;;;;;;;17.55;45.48;100440.66;4960721;28;20113;-41
2023/04/23 05:27:20;;;;;;;14.00;8.23;;;;;;;17.63;45.17;100440.78;4956674;28;20066;-42
2023/04/23 05:29:45;;;;;;;13.15;8.20;;;;;;;17.64;45.15;100444.28;4959964;28;20030;-42
2023/04/23 05:32:11;;;;;;;20.15;10.30;;;;;;;17.66;45.12;100451.13;4958631;28;20034;-42
2023/04/23 05:34:37;;;;;;;19.02;9.38;;;;;;;17.72;45.17;100446.25;4956280;28;20043;-41
2023/04/23 05:37:03;;;;;;;20.58;10.52;;;;;;;17.72;45.61;100456.88;4967788;28;20050;-41
2023/04/23 05:39:28;;;;;;;18.45;9.88;;;;;;;17.71;46.01;100449.88;4960748;28;20481;-41
2023/04/23 05:41:53;;;;;;;14.85;9.07;;;;;;;17.65;46.33;100446.81;4960344;28;20050;-41
2023/04/23 05:44:19;;;;;;;14.00;8.80;;;;;;;17.68;46.67;100454.50;4952863;28;20481;-42
2023/04/23 05:46:44;;;;;;;18.88;9.75;;;;;;;17.74;46.97;100455.75;4957451;28;20038;-42
2023/04/23 05:49:10;;;;;;;16.00;9.82;;;;;;;17.73;47.36;100459.38;4958072;28;20038;-41
2023/04/23 05:51:35;;;;;;;29.30;12.35;;;;;;;17.61;47.99;100461.38;4956070;28;20394;-41
2023/04/23 05:54:01;;;;;;;31.42;12.05;;;;;;;17.62;48.28;100460.38;4956308;28;20042;-41
2023/04/23 05:56:27;;;;;;;64.93;23.52;;;;;;;17.62;48.49;100465.69;4957618;28;20045;-41
2023/04/23 05:58:52;;;;;;;38.97;17.92;;;;;;;17.66;48.57;100463.63;4957269;28;20042;-42
2023/04/23 06:01:18;;;;;;;11.25;5.95;;;;;;;17.75;48.32;100460.09;4958713;28;20108;-41
2023/04/23 06:03:44;;;;;;;24.13;12.55;;;;;;;17.81;48.04;100462.19;4957224;28;20417;-43
2023/04/23 06:06:11;;;;;;;19.20;9.93;;;;;;;17.92;47.73;100460.34;4950588;28;20069;-41
2023/04/23 06:08:36;;;;;;;20.38;10.63;;;;;;;17.95;47.38;100452.91;4952314;28;20464;-41
2023/04/23 06:11:02;;;;;;;11.35;8.38;;;;;;;17.96;47.46;100454.59;4963162;28;20035;-42
2023/04/23 06:13:29;;;;;;;13.50;8.55;;;;;;;18.02;47.33;100458.53;4971647;28;20089;-41
2023/04/23 06:15:55;;;;;;;16.63;8.75;;;;;;;18.09;47.27;100453.47;4957429;28;20102;-41
2023/04/23 06:18:20;;;;;;;12.98;7.93;;;;;;;18.12;46.84;100455.84;4961722;28;20455;-41
2023/04/23 06:20:47;;;;;;;14.90;7.60;;;;;;;18.11;46.80;100451.50;4956351;28;20039;-42
2023/04/23 06:23:13;;;;;;;17.38;8.02;;;;;;;18.18;46.57;100460.59;4958385;28;20089;-42
2023/04/23 06:25:38;;;;;;;14.98;8.10;;;;;;;18.24;46.43;100452.00;4958678;28;20542;-41
2023/04/23 06:28:04;;;;;;;7.65;5.15;;;;;;;18.30;46.35;100452.41;4959275;28;20034;-42
2023/04/23 06:30:29;;;;;;;14.00;7.88;;;;;;;18.38;45.96;100447.19;4957738;28;20039;-42
2023/04/23 06:32:55;;;;;;;10.23;7.15;;;;;;;18.42;46.06;100453.91;4957823;28;20497;-43
2023/04/23 06:35:20;;;;;;;11.77;8.43;;;;;;;18.42;46.01;100445.91;4954716;28;20042;-42
2023/04/23 06:37:46;;;;;;;12.30;7.25;;;;;;;18.46;45.92;100452.63;4956852;28;20049;-42
2023/04/23 06:40:11;;;;;;;10.63;6.97;;;;;;;18.50;45.82;100442.50;4957049;28;20043;-42
2023/04/23 06:42:36;;;;;;;15.15;7.95;;;;;;;18.54;45.71;100442.06;4959882;28;20521;-42
2023/04/23 06:45:03;;;;;;;9.55;7.28;;;;;;;18.57;45.63;100447.09;4954193;28;20039;-42
2023/04/23 06:47:29;;;;;;;11.75;7.35;;;;;;;18.65;45.59;100445.53;4950574;28;20443;-42
2023/04/23 06:49:56;;;;;;;10.90;6.90;;;;;;;18.69;45.59;100444.22;4948051;28;20629;-39
2023/04/23 06:52:21;;;;;;;13.32;7.75;;;;;;;18.67;45.78;100446.22;4959088;28;20034;-39
2023/04/23 06:54:47;;;;;;;13.32;7.22;;;;;;;18.69;45.75;100446.88;4950557;28;20513;-42
2023/04/23 06:57:12;;;;;;;12.25;7.45;;;;;;;18.68;45.74;100450.56;4952835;28;20034;-39
2023/04/23 06:59:37;;;;;;;11.98;7.15;;;;;;;18.69;45.72;100449.56;4950917;28;20456;-39
2023/04/23 07:02:03;;;;;;;14.05;7.63;;;;;;;18.71;45.66;100443.09;4954899;28;20039;-40
2023/04/23 07:04:28;;;;;;;10.25;7.03;;;;;;;18.78;45.64;100448.69;4945357;28;20037;-40
2023/04/23 07:06:54;;;;;;;39.47;19.98;;;;;;;18.85;45.38;100444.41;4955087;28;20075;-40
2023/04/23 07:09:19;;;;;;;16.35;8.00;;;;;;;18.92;45.33;100449.16;4955766;28;20677;-40
2023/04/23 07:11:45;;;;;;;12.57;7.22;;;;;;;18.97;45.45;100446.91;4957834;28;20113;-40
2023/04/23 07:14:10;;;;;;;22.80;11.60;;;;;;;19.03;45.35;100448.97;4951810;28;20038;-40
2023/04/23 07:16:36;;;;;;;12.40;8.90;;;;;;;19.11;45.47;100443.72;4957116;28;20056;-42
2023/04/23 07:19:01;;;;;;;17.30;9.43;;;;;;;19.17;45.36;100442.28;4955427;28;20041;-40
2023/04/23 07:21:27;;;;;;;12.10;7.65;;;;;;;19.23;45.24;100440.81;4960210;28;20042;-40
2023/04/23 07:23:55;;;;;;;12.68;6.72;;;;;;;19.27;45.20;100434.19;4950215;28;20022;-40
2023/04/23 07:26:21;;;;;;;14.48;7.50;;;;;;;19.29;45.48;100435.72;4960646;28;20194;-39
2023/04/23 07:28:47;;;;;;;11.20;6.40;;;;;;;19.28;45.55;100435.88;4949298;28;20755;-39
2023/04/23 07:31:13;;;;;;;8.85;6.30;;;;;;;19.23;45.68;100435.50;4960207;28;20034;-40
2023/04/23 07:33:38;;;;;;;9.60;6.10;;;;;;;19.26;45.72;100430.69;4954826;28;20035;-41
2023/04/23 07:36:04;;;;;;;10.32;6.53;;;;;;;19.27;45.90;100435.03;4955011;28;20085;-41
2023/04/23 07:38:29;;;;;;;14.13;6.20;;;;;;;19.26;45.84;100438.69;4956578;28;20054;-41
2023/04/23 07:40:55;;;;;;;13.82;6.20;;;;;;;19.25;46.12;100434.34;4951263;28;20094;-41
2023/04/23 07:43:20;;;;;;;9.88;6.90;;;;;;;19.23;46.20;100438.97;4954034;28;20038;-41
2023/04/23 07:45:46;;;;;;;8.73;5.93;;;;;;;19.15;46.45;100442.41;4961613;28;20038;-41
2023/04/23 07:48:11;;;;;;;14.65;7.13;;;;;;;19.09;46.74;100445.69;4954904;28;20053;-42
2023/04/23 07:50:37;;;;;;;7.82;4.97;;;;;;;19.12;47.10;100441.88;4955023;28;20517;-41
2023/04/23 07:53:02;;;;;;;11.65;7.28;;;;;;;19.13;47.01;100444.41;4950950;28;20042;-41
2023/04/23 07:55:28;;;;;;;12.27;6.95;;;;;;;18.95;47.28;100451.56;4944648;28;20047;-41
2023/04/23 07:57:53;;;;;;;13.32;7.05;;;;;;;18.88;47.40;100446.78;4950419;28;20031;-42
2023/04/23 08:00:18;;;;;;;15.70;9.93;;;;;;;18.89;47.39;100451.13;4951073;28;20510;-41
2023/04/23 08:02:44;;;;;;;12.07;7.60;;;;;;;18.89;47.67;100448.47;4950070;28;20765;-40
2023/04/23 08:05:10;;;;;;;11.32;6.15;;;;;;;18.86;47.77;100442.59;4951058;28;20064;-45
2023/04/23 08:07:35;;;;;;;13.60;7.20;;;;;;;18.86;47.82;100454.09;4954061;28;20046;-43
2023/04/23 08:10:04;;;;;;;11.18;6.43;;;;;;;18.86;48.06;100458.59;4950769;28;20057;-42
2023/04/23 08:12:33;;;;;;;14.25;7.07;;;;;;;18.84;48.07;100458.72;4946756;28;20035;-42
2023/04/23 08:14:58;;;;;;;10.82;6.43;;;;;;;18.80;48.54;100464.50;4951657;28;20406;-42
2023/04/23 08:17:24;;;;;;;10.98;6.70;;;;;;;18.76;48.71;100458.66;4953810;28;20038;-41
2023/04/23 08:19:49;;;;;;;11.93;6.22;;;;;;;18.68;48.89;100459.38;4954101;28;20467;-41
2023/04/23 08:22:16;;;;;;;15.45;8.07;;;;;;;18.65;49.16;100458.84;4960243;28;20811;-42
2023/04/23 08:24:42;;;;;;;16.73;9.57;;;;;;;18.60;49.18;100456.63;4951146;28;20165;-43
2023/04/23 08:27:08;;;;;;;10.52;6.93;;;;;;;18.63;49.37;100452.84;4951814;28;20062;-41
2023/04/23 08:29:33;;;;;;;13.18;7.63;;;;;;;18.67;49.45;100460.38;4957403;28;20054;-41
2023/04/23 08:31:58;;;;;;;12.40;7.22;;;;;;;18.74;49.32;100465.94;4960199;28;20042;-42
2023/04/23 08:34:24;;;;;;;16.92;7.57;;;;;;;18.76;49.50;100466.63;4957170;28;20041;-43
2023/04/23 08:36:50;;;;;;;13.50;7.53;;;;;;;18.80;49.71;100462.69;4958694;28;20117;-42
2023/04/23 08:39:15;;;;;;;23.88;11.32;;;;;;;18.87;49.59;100468.25;4959920;28;20103;-42
2023/04/23 08:41:43;;;;;;;17.42;8.60;;;;;;;18.86;49.85;100472.75;4956286;28;20595;-43
2023/04/23 08:44:17;;;;;;;12.57;8.00;;;;;;;18.87;50.29;100468.25;4955715;28;20100;-43
2023/04/23 08:46:43;;;;;;;16.27;10.60;;;;;;;18.82;50.23;100467.88;4955460;28;20555;-43
2023/04/23 08:49:15;;;;;;;16.00;9.70;;;;;;;18.86;50.09;100477.25;4953381;28;20034;-42
2023/04/23 08:51:51;;;;;;;10.43;7.15;;;;;;;18.85;50.19;100476.41;4955497;28;20065;-42
2023/04/23 08:54:27;;;;;;;21.15;8.32;;;;;;;18.81;50.84;100475.03;4947776;28;20041;-41
2023/04/23 08:56:57;;;;;;;9.95;6.97;;;;;;;18.80;50.60;100489.34;4950843;28;20023;-42
2023/04/23 08:59:25;;;;;;;13.82;7.80;;;;;;;18.73;50.60;100478.44;4958199;28;20030;-44
2023/04/23 09:01:51;;;;;;;11.60;8.07;;;;;;;18.72;50.61;100482.09;4953112;28;20034;-42
2023/04/23 09:04:19;;;;;;;12.00;8.20;;;;;;;18.79;50.58;100479.69;4961413;28;20038;-42
2023/04/23 09:06:44;;;;;;;14.05;7.35;;;;;;;18.83;50.64;100488.19;4950053;28;20026;-42
2023/04/23 09:09:15;;;;;;;18.05;11.70;;;;;;;18.88;50.81;100489.44;4956463;28;20039;-42
2023/04/23 09:11:40;;;;;;;18.77;10.55;;;;;;;18.91;50.92;100495.47;4939526;28;20083;-42
2023/04/23 09:14:07;;;;;;;11.85;7.63;;;;;;;18.96;50.85;100488.72;4954223;28;20181;-41
2023/04/23 09:16:33;;;;;;;13.93;8.30;;;;;;;18.97;50.82;100489.56;4946731;28;21578;-42
2023/04/23 09:18:58;;;;;;;11.02;8.77;;;;;;;19.06;50.85;100487.84;4958785;28;20031;-41
2023/04/23 09:21:23;;;;;;;12.65;7.88;;;;;;;19.04;50.78;100494.16;4950178;28;20037;-42
2023/04/23 09:23:51;;;;;;;11.77;8.23;;;;;;;19.08;50.65;100491.16;4955474;28;20082;-42
2023/04/23 09:26:21;;;;;;;25.55;11.05;;;;;;;19.16;50.83;100500.09;4955283;28;20041;-42
2023/04/23 09:28:49;;;;;;;14.38;9.10;;;;;;;18.99;51.07;100492.91;4960702;28;20381;-42
2023/04/23 09:31:20;;;;;;;10.95;7.35;;;;;;;19.01;51.30;100496.25;4959185;28;20104;-42
2023/04/23 09:33:51;;;;;;;15.10;8.90;;;;;;;19.04;51.11;100495.97;4965730;28;20728;-43
2023/04/23 09:36:20;;;;;;;11.80;7.90;;;;;;;18.97;51.25;100501.06;4951442;28;20042;-42
2023/04/23 09:38:46;;;;;;;15.95;9.48;;;;;;;18.91;51.29;100495.47;4961825;28;20035;-42
2023/04/23 09:41:30;;;;;;;14.38;8.98;;;;;;;18.98;52.05;100497.41;4963812;28;20648;-42
2023/04/23 09:43:56;;;;;;;19.02;9.80;;;;;;;18.91;51.43;100493.63;4963478;28;20046;-42
2023/04/23 09:46:39;;;;;;;15.35;8.90;;;;;;;18.89;52.58;100498.28;4962847;28;20042;-42
2023/04/23 09:49:06;;;;;;;18.30;8.75;;;;;;;18.77;52.22;100494.97;4964710;28;20051;-42
2023/04/23 09:51:39;;;;;;;13.13;8.45;;;;;;;18.79;52.42;100493.00;4959290;28;20078;-42
2023/04/23 09:54:10;;;;;;;10.68;7.20;;;;;;;18.68;54.06;100490.53;4949905;28;20070;-42
2023/04/23 09:56:35;;;;;;;12.40;8.32;;;;;;;18.48;53.78;100489.75;4957601;28;22326;-42
2023/04/23 09:59:01;;;;;;;15.88;8.10;;;;;;;18.42;54.19;100491.19;4949492;28;20050;-42
2023/04/23 10:01:28;;;;;;;14.40;8.30;;;;;;;18.40;54.77;100496.69;4948079;28;20074;-42
2023/04/23 10:03:55;;;;;;;14.68;9.80;;;;;;;18.27;55.60;100491.66;4945599;28;20070;-42
2023/04/23 10:06:30;;;;;;;15.48;8.90;;;;;;;18.31;57.98;100494.03;4943057;28;20035;-42
2023/04/23 10:08:56;;;;;;;12.82;7.50;;;;;;;18.22;56.35;100495.75;4948033;28;20034;-42
2023/04/23 10:11:24;;;;;;;14.88;7.78;;;;;;;18.27;56.80;100502.31;4951353;28;20046;-42
2023/04/23 10:13:50;;;;;;;10.52;7.00;;;;;;;18.30;56.98;100497.69;4948871;28;20089;-42
2023/04/23 10:16:17;;;;;;;10.77;7.13;;;;;;;18.36;57.29;100489.13;4956605;28;20038;-44
2023/04/23 10:18:43;;;;;;;13.70;7.07;;;;;;;18.39;57.58;100499.47;4964290;28;20080;-41
2023/04/23 10:21:11;;;;;;;11.35;6.90;;;;;;;18.42;57.96;100496.53;4967370;28;20034;-43
2023/04/23 10:23:37;;;;;;;13.73;7.90;;;;;;;18.48;58.48;100501.28;4961014;28;20076;-41
2023/04/23 10:26:03;;;;;;;12.43;7.78;;;;;;;18.42;58.92;100497.38;4961009;28;20041;-41
2023/04/23 10:28:32;;;;;;;16.60;9.35;;;;;;;18.46;59.40;100503.25;4962127;28;20030;-42
2023/04/23 10:30:59;;;;;;;11.93;7.07;;;;;;;18.47;59.45;100498.75;4968676;28;21381;-42
2023/04/23 10:33:27;;;;;;;9.20;4.80;;;;;;;18.41;60.12;100497.50;4963622;28;20107;-42
2023/04/23 10:35:55;;;;;;;9.82;5.20;;;;;;;18.42;59.83;100499.19;4965786;28;20544;-42
2023/04/23 10:38:22;;;;;;;8.20;4.43;;;;;;;18.33;60.93;100497.41;4964991;28;20126;-42
2023/04/23 10:40:50;;;;;;;7.45;4.47;;;;;;;18.32;61.23;100495.72;4965504;28;20034;-42
2023/04/23 10:43:18;;;;;;;7.80;4.82;;;;;;;18.20;61.29;100493.25;4959859;28;20046;-42
2023/04/23 10:45:43;;;;;;;5.57;4.30;;;;;;;18.24;61.25;100488.47;4955818;28;20038;-41
2023/04/23 10:48:09;;;;;;;8.20;5.60;;;;;;;18.31;60.99;100494.03;4952461;28;20056;-42
2023/04/23 10:50:35;;;;;;;6.57;4.82;;;;;;;18.39;61.43;100496.81;4947125;28;20034;-42
2023/04/23 10:53:02;;;;;;;10.23;5.75;;;;;;;18.36;61.65;100487.28;4948961;28;20075;-42
2023/04/23 10:55:31;;;;;;;7.35;5.22;;;;;;;18.40;61.93;100498.50;4943058;28;20144;-42
2023/04/23 10:58:01;;;;;;;6.75;4.88;;;;;;;18.42;61.63;100493.84;4951174;28;20045;-42
2023/04/23 11:00:27;;;;;;;8.63;5.65;;;;;;;18.39;61.57;100497.66;4948586;28;20402;-41
2023/04/23 11:02:54;;;;;;;8.80;6.43;;;;;;;18.39;61.79;100492.34;4954706;28;20030;-43
2023/04/23 11:05:22;;;;;;;7.85;4.85;;;;;;;18.40;62.13;100498.50;4952430;28;20047;-41
2023/04/23 11:08:05;;;;;;;11.93;7.03;;;;;;;18.50;63.02;100495.78;4953874;28;20153;-42
2023/04/23 11:10:32;;;;;;;8.93;4.88;;;;;;;18.52;62.01;100492.00;4951051;28;20108;-44
2023/04/23 11:12:57;;;;;;;8.18;4.72;;;;;;;18.65;61.60;100490.84;4967289;28;20842;-42